createdAt,value
2022-10-08T00:00:01.812Z,26.23
2022-10-08T00:02:43.125Z,26.30
2022-10-08T00:05:14.930Z,26.35
2022-10-08T00:07:47.999Z,25.85
2022-10-08T00:10:19.603Z,25.40
2022-10-08T00:12:51.456Z,25.73
2022-10-08T00:15:26.161Z,25.98
2022-10-08T00:17:57.893Z,26.67
2022-10-08T00:20:29.533Z,26.58
2022-10-08T00:23:02.079Z,25.27
2022-10-08T00:25:42.465Z,25.40
2022-10-08T00:28:19.269Z,25.30
2022-10-08T00:30:50.943Z,24.20
2022-10-08T00:33:22.760Z,25.13
2022-10-08T00:35:54.549Z,25.70
2022-10-08T00:38:27.689Z,26.55
2022-10-08T00:41:02.407Z,25.25
2022-10-08T00:43:40.632Z,26.05
2022-10-08T00:46:47.095Z,25.38
2022-10-08T00:49:27.612Z,25.05
2022-10-08T00:52:04.595Z,24.73
2022-10-08T00:54:39.113Z,24.40
2022-10-08T00:57:12.681Z,24.30
2022-10-08T00:59:44.529Z,24.73
2022-10-08T01:02:22.244Z,24.60
2022-10-08T01:04:54.058Z,25.63
2022-10-08T01:07:44.948Z,24.42
2022-10-08T01:10:25.406Z,23.67
2022-10-08T01:13:25.260Z,23.90
2022-10-08T01:16:01.011Z,25.67
2022-10-08T01:18:50.741Z,23.95
2022-10-08T01:21:47.572Z,23.30
2022-10-08T01:25:13.186Z,24.95
2022-10-08T01:27:55.743Z,25.03
2022-10-08T01:30:30.357Z,24.27
2022-10-08T01:35:53.836Z,23.27
2022-10-08T01:38:29.746Z,24.10
2022-10-08T01:41:07.748Z,24.63
2022-10-08T01:43:50.769Z,25.15
2022-10-08T01:46:27.093Z,24.27
2022-10-08T01:49:13.696Z,24.05
2022-10-08T01:51:53.997Z,24.73
2022-10-08T01:54:30.443Z,23.80
2022-10-08T01:57:05.810Z,23.95
2022-10-08T01:59:42.941Z,24.08
2022-10-08T02:02:20.529Z,23.10
2022-10-08T02:04:57.908Z,24.80
2022-10-08T02:07:40.058Z,24.77
2022-10-08T02:10:15.283Z,22.08
2022-10-08T02:12:47.126Z,21.23
2022-10-08T02:15:23.504Z,22.83
2022-10-08T02:17:58.593Z,22.25
2022-10-08T02:20:45.374Z,21.17
2022-10-08T02:23:29.802Z,21.38
2022-10-08T02:26:04.433Z,22.52
2022-10-08T02:29:13.460Z,22.92
2022-10-08T02:31:50.626Z,23.65
2022-10-08T02:34:28.976Z,25.67
2022-10-08T02:37:10.700Z,22.77
2022-10-08T02:39:48.206Z,23.65
2022-10-08T02:42:24.885Z,24.23
2022-10-08T02:45:07.587Z,22.92
2022-10-08T02:47:43.600Z,22.48
2022-10-08T02:50:20.638Z,22.88
2022-10-08T02:52:56.225Z,23.27
2022-10-08T02:55:57.082Z,22.23
2022-10-08T02:58:32.086Z,20.92
2022-10-08T03:01:10.439Z,21.58
2022-10-08T03:03:55.271Z,21.75
2022-10-08T03:06:30.102Z,20.80
2022-10-08T03:09:08.932Z,20.52
2022-10-08T03:11:41.397Z,20.33
2022-10-08T03:14:18.342Z,21.48
2022-10-08T03:16:54.209Z,20.02
2022-10-08T03:19:28.685Z,19.95
2022-10-08T03:22:02.131Z,20.67
2022-10-08T03:24:35.203Z,20.33
2022-10-08T03:27:06.926Z,21.40
2022-10-08T03:29:38.631Z,21.10
2022-10-08T03:32:10.574Z,21.00
2022-10-08T03:34:42.887Z,20.27
2022-10-08T03:37:14.549Z,20.17
2022-10-08T03:39:46.540Z,20.63
2022-10-08T03:42:18.263Z,19.80
2022-10-08T03:44:49.953Z,20.33
2022-10-08T03:47:21.711Z,19.15
2022-10-08T03:49:55.574Z,19.67
2022-10-08T03:52:27.539Z,19.65
2022-10-08T03:55:01.220Z,19.25
2022-10-08T03:57:33.502Z,20.63
2022-10-08T04:00:05.766Z,21.50
2022-10-08T04:02:37.901Z,19.63
2022-10-08T04:05:12.868Z,21.67
2022-10-08T04:07:44.575Z,22.70
2022-10-08T04:10:19.490Z,20.17
2022-10-08T04:12:51.180Z,21.27
2022-10-08T04:15:22.830Z,19.83
2022-10-08T04:17:54.582Z,19.90
2022-10-08T04:20:26.506Z,20.77
2022-10-08T04:23:00.954Z,19.23
2022-10-08T04:25:32.863Z,19.73
2022-10-08T04:28:06.063Z,20.27
2022-10-08T04:30:41.917Z,19.52
2022-10-08T04:33:13.648Z,19.52
2022-10-08T04:35:45.438Z,18.23
2022-10-08T04:38:17.329Z,19.77
2022-10-08T04:40:52.213Z,21.55
2022-10-08T04:43:24.133Z,18.27
2022-10-08T04:45:55.971Z,19.10
2022-10-08T04:48:28.748Z,18.73
2022-10-08T04:51:08.033Z,19.40
2022-10-08T04:53:42.494Z,18.00
2022-10-08T04:56:20.495Z,19.58
2022-10-08T04:58:55.094Z,18.88
2022-10-08T05:01:27.955Z,17.67
2022-10-08T05:03:59.970Z,17.80
2022-10-08T05:06:32.102Z,18.15
2022-10-08T05:09:04.678Z,19.38
2022-10-08T05:11:36.324Z,18.52
2022-10-08T05:14:08.342Z,18.65
2022-10-08T05:16:40.001Z,18.52
2022-10-08T05:19:11.649Z,18.58
2022-10-08T05:21:44.335Z,17.38
2022-10-08T05:24:16.048Z,17.27
2022-10-08T05:26:58.617Z,17.38
2022-10-08T05:29:32.975Z,18.10
2022-10-08T05:32:04.955Z,16.67
2022-10-08T05:34:36.824Z,17.30
2022-10-08T05:37:08.567Z,18.05
2022-10-08T05:39:40.248Z,18.05
2022-10-08T05:42:14.776Z,17.20
2022-10-08T05:44:46.429Z,17.02
2022-10-08T05:47:18.183Z,16.90
2022-10-08T05:49:49.831Z,17.48
2022-10-08T05:52:21.586Z,15.75
2022-10-08T05:54:53.284Z,16.45
2022-10-08T05:57:24.976Z,17.38
2022-10-08T05:59:56.909Z,16.17
2022-10-08T06:02:28.752Z,16.40
2022-10-08T06:05:00.457Z,17.45
2022-10-08T06:07:32.158Z,16.52
2022-10-08T06:10:04.237Z,15.88
2022-10-08T06:12:38.006Z,17.52
2022-10-08T06:15:10.210Z,16.97
2022-10-08T06:17:43.925Z,16.17
2022-10-08T06:20:15.696Z,14.77
2022-10-08T06:22:47.848Z,14.88
2022-10-08T06:25:22.479Z,15.82
2022-10-08T06:27:54.254Z,15.32
2022-10-08T06:30:26.155Z,14.55
2022-10-08T06:32:57.975Z,14.95
2022-10-08T06:35:30.252Z,14.70
2022-10-08T06:38:02.836Z,15.30
2022-10-08T06:40:39.020Z,13.88
2022-10-08T06:43:16.633Z,15.52
2022-10-08T06:45:48.328Z,14.30
2022-10-08T06:48:20.054Z,13.27
2022-10-08T06:51:01.666Z,14.40
2022-10-08T06:53:34.802Z,13.77
2022-10-08T06:56:10.795Z,13.70
2022-10-08T06:58:44.923Z,14.00
2022-10-08T07:01:23.375Z,12.63
2022-10-08T07:04:00.556Z,13.25
2022-10-08T07:06:32.422Z,13.55
2022-10-08T07:09:05.390Z,13.18
2022-10-08T07:11:38.373Z,13.13
2022-10-08T07:14:11.102Z,12.90
2022-10-08T07:16:42.828Z,13.10
2022-10-08T07:19:15.311Z,13.90
2022-10-08T07:21:47.052Z,12.60
2022-10-08T07:24:18.799Z,12.88
2022-10-08T07:26:50.532Z,12.55
2022-10-08T07:29:24.702Z,12.95
2022-10-08T07:31:56.449Z,12.23
2022-10-08T07:34:32.950Z,13.30
2022-10-08T07:37:04.631Z,11.82
2022-10-08T07:39:36.780Z,11.93
2022-10-08T07:42:08.406Z,11.38
2022-10-08T07:44:40.212Z,11.95
2022-10-08T07:47:11.832Z,12.32
2022-10-08T07:49:45.572Z,11.77
2022-10-08T07:52:18.497Z,11.50
2022-10-08T07:54:50.195Z,11.95
2022-10-08T07:57:21.915Z,11.85
2022-10-08T07:59:56.376Z,11.95
2022-10-08T08:02:28.477Z,11.55
2022-10-08T08:05:00.371Z,13.35
2022-10-08T08:07:31.963Z,12.15
2022-10-08T08:10:04.110Z,11.48
2022-10-08T08:12:35.773Z,11.48
2022-10-08T08:15:09.080Z,11.90
2022-10-08T08:17:40.934Z,11.43
2022-10-08T08:20:12.780Z,12.43
2022-10-08T08:22:44.697Z,11.68
2022-10-08T08:25:17.027Z,11.20
2022-10-08T08:27:48.999Z,11.68
2022-10-08T08:30:20.811Z,10.63
2022-10-08T08:32:52.922Z,12.23
2022-10-08T08:35:27.671Z,11.40
2022-10-08T08:37:59.415Z,12.32
2022-10-08T08:40:31.087Z,12.27
2022-10-08T08:43:02.760Z,11.40
2022-10-08T08:45:51.874Z,11.50
2022-10-08T08:48:33.208Z,11.63
2022-10-08T08:51:05.135Z,12.32
2022-10-08T08:53:36.804Z,12.30
2022-10-08T08:56:13.109Z,11.60
2022-10-08T08:59:18.246Z,12.80
2022-10-08T09:01:51.233Z,12.13
2022-10-08T09:04:48.909Z,11.48
2022-10-08T09:07:26.263Z,11.82
2022-10-08T09:09:59.515Z,11.52
2022-10-08T09:12:37.890Z,12.30
2022-10-08T09:15:23.890Z,13.02
2022-10-08T09:17:55.630Z,11.43
2022-10-08T09:20:28.711Z,12.02
2022-10-08T09:23:00.594Z,12.30
2022-10-08T09:25:34.376Z,13.43
2022-10-08T09:28:07.304Z,13.02
2022-10-08T09:30:42.849Z,12.60
2022-10-08T09:33:18.608Z,13.75
2022-10-08T09:35:52.591Z,13.77
2022-10-08T09:38:32.724Z,14.05
2022-10-08T09:41:17.820Z,13.52
2022-10-08T09:44:11.434Z,12.88
2022-10-08T09:46:46.889Z,13.75
2022-10-08T09:49:35.273Z,12.93
2022-10-08T09:52:22.298Z,13.43
2022-10-08T09:55:02.188Z,13.38
2022-10-08T09:57:44.027Z,12.60
2022-10-08T10:00:37.174Z,14.77
2022-10-08T10:03:17.944Z,13.40
2022-10-08T10:05:55.285Z,13.50
2022-10-08T10:08:53.105Z,13.93
2022-10-08T10:11:31.419Z,14.65
2022-10-08T10:14:26.130Z,13.82
2022-10-08T10:17:05.811Z,14.18
2022-10-08T10:20:05.219Z,15.45
2022-10-08T10:22:54.260Z,13.82
2022-10-08T10:25:33.066Z,14.23
2022-10-08T10:28:13.569Z,14.18
2022-10-08T10:30:53.102Z,13.38
2022-10-08T10:33:32.554Z,14.85
2022-10-08T10:36:09.595Z,13.52
2022-10-08T10:38:52.234Z,13.50
2022-10-08T10:42:02.085Z,14.45
2022-10-08T10:44:52.565Z,13.93
2022-10-08T10:47:32.065Z,12.98
2022-10-08T10:50:06.004Z,12.57
2022-10-08T10:53:05.744Z,11.47
2022-10-08T10:55:44.745Z,12.98
2022-10-08T10:58:37.798Z,13.02
2022-10-08T11:01:12.578Z,11.95
2022-10-08T11:04:01.481Z,12.93
2022-10-08T11:06:56.429Z,11.45
2022-10-08T11:09:34.400Z,12.52
2022-10-08T11:12:46.272Z,11.60
2022-10-08T11:15:26.659Z,11.02
2022-10-08T11:18:14.510Z,10.77
2022-10-08T11:21:07.236Z,11.80
2022-10-08T11:23:45.219Z,10.98
2022-10-08T11:26:22.835Z,11.18
2022-10-08T11:29:04.705Z,10.18
2022-10-08T11:31:49.230Z,10.95
2022-10-08T11:34:29.828Z,10.50
2022-10-08T11:37:20.986Z,9.90
2022-10-08T11:40:15.707Z,10.30
2022-10-08T11:43:08.643Z,11.05
2022-10-08T11:45:43.144Z,10.45
2022-10-08T11:51:20.160Z,10.13
2022-10-08T11:54:03.712Z,10.00
2022-10-08T11:56:39.155Z,11.00
2022-10-08T11:59:28.193Z,10.18
2022-10-08T12:02:18.795Z,10.55
2022-10-08T12:04:55.797Z,9.82
2022-10-08T12:07:33.219Z,10.43
2022-10-08T12:10:20.030Z,10.38
2022-10-08T12:12:51.859Z,10.52
2022-10-08T12:15:23.648Z,10.95
2022-10-08T12:17:58.020Z,11.95
2022-10-08T12:20:37.709Z,10.02
2022-10-08T12:23:34.462Z,10.98
2022-10-08T12:26:10.272Z,10.95
2022-10-08T12:28:50.991Z,10.98
2022-10-08T12:31:40.208Z,11.45
2022-10-08T12:34:17.969Z,9.95
2022-10-08T12:37:13.513Z,11.27
2022-10-08T12:39:53.573Z,10.43
2022-10-08T12:42:34.337Z,10.63
2022-10-08T12:45:25.989Z,10.15
2022-10-08T12:48:19.458Z,9.77
2022-10-08T12:51:13.145Z,10.60
2022-10-08T12:53:48.686Z,11.30
2022-10-08T12:56:28.171Z,10.65
2022-10-08T12:59:03.670Z,10.40
2022-10-08T13:01:42.969Z,11.77
2022-10-08T13:04:18.570Z,10.68
2022-10-08T13:06:52.761Z,10.85
2022-10-08T13:09:27.746Z,11.73
2022-10-08T13:12:05.938Z,10.95
2022-10-08T13:14:39.528Z,10.63
2022-10-08T13:17:43.618Z,10.77
2022-10-08T13:20:21.902Z,9.70
2022-10-08T13:22:53.694Z,9.98
2022-10-08T13:25:31.480Z,10.07
2022-10-08T13:28:41.827Z,10.50
2022-10-08T13:31:23.273Z,9.57
2022-10-08T13:33:55.117Z,9.25
2022-10-08T13:36:26.754Z,9.43
2022-10-08T13:38:58.649Z,9.73
2022-10-08T13:41:30.327Z,9.27
2022-10-08T13:44:06.762Z,9.50
2022-10-08T13:46:42.455Z,9.00
2022-10-08T13:49:23.094Z,8.82
2022-10-08T13:51:58.731Z,10.10
2022-10-08T13:54:34.127Z,8.68
2022-10-08T13:57:08.598Z,9.32
2022-10-08T13:59:40.439Z,9.63
2022-10-08T14:02:14.312Z,9.57
2022-10-08T14:04:47.106Z,8.70
2022-10-08T14:07:31.123Z,9.18
2022-10-08T14:10:04.047Z,8.65
2022-10-08T14:12:35.761Z,8.85
2022-10-08T14:15:10.253Z,8.80
2022-10-08T14:20:16.690Z,8.82
2022-10-08T14:22:48.355Z,8.73
2022-10-08T14:25:23.520Z,7.60
2022-10-08T14:27:55.209Z,7.85
2022-10-08T14:30:28.124Z,8.93
2022-10-08T14:32:59.888Z,8.10
2022-10-08T14:35:31.789Z,7.60
2022-10-08T14:38:03.850Z,6.70
2022-10-08T14:40:35.888Z,7.15
2022-10-08T14:43:07.899Z,7.07
2022-10-08T14:45:39.819Z,7.18
2022-10-08T14:48:11.644Z,7.50
2022-10-08T14:50:43.350Z,8.57
2022-10-08T14:53:15.051Z,6.80
2022-10-08T14:56:10.490Z,6.35
2022-10-08T14:58:40.595Z,6.05
2022-10-08T15:01:12.506Z,7.00
2022-10-08T15:03:45.758Z,6.75
2022-10-08T15:06:17.580Z,6.10
2022-10-08T15:08:49.409Z,6.35
2022-10-08T15:11:21.131Z,6.68
2022-10-08T15:13:53.773Z,6.00
2022-10-08T15:16:25.872Z,6.07
2022-10-08T15:18:57.581Z,6.07
2022-10-08T15:21:29.355Z,5.70
2022-10-08T15:24:01.072Z,5.47
2022-10-08T15:26:33.849Z,5.55
2022-10-08T15:29:05.510Z,5.47
2022-10-08T15:31:37.318Z,5.82
2022-10-08T15:34:16.388Z,5.88
2022-10-08T15:36:48.398Z,6.38
2022-10-08T15:39:20.701Z,5.32
2022-10-08T15:41:54.474Z,5.50
2022-10-08T15:44:31.545Z,5.30
2022-10-08T15:47:07.300Z,5.13
2022-10-08T15:49:41.832Z,5.18
2022-10-08T15:54:47.522Z,5.45
2022-10-08T15:57:19.418Z,5.40
2022-10-08T15:59:51.079Z,5.32
2022-10-08T16:02:25.054Z,4.87
2022-10-08T16:04:57.123Z,5.30
2022-10-08T16:07:32.088Z,5.32
2022-10-08T16:10:04.191Z,4.90
2022-10-08T16:12:35.837Z,6.35
2022-10-08T16:15:09.347Z,5.72
2022-10-08T16:17:41.063Z,6.13
2022-10-08T16:20:12.782Z,7.28
2022-10-08T16:22:47.007Z,7.90
2022-10-08T16:25:18.918Z,7.75
2022-10-08T16:27:50.970Z,7.05
2022-10-08T16:30:22.962Z,7.90
2022-10-08T16:32:56.682Z,7.07
2022-10-08T16:35:28.368Z,8.25
2022-10-08T16:38:00.057Z,7.75
2022-10-08T16:40:31.755Z,7.72
2022-10-08T16:43:03.615Z,8.13
2022-10-08T16:45:39.581Z,6.88
2022-10-08T16:48:11.394Z,7.47
2022-10-08T16:50:43.067Z,7.80
2022-10-08T16:53:19.088Z,7.20
2022-10-08T16:58:22.294Z,7.95
2022-10-08T17:00:53.999Z,7.43
2022-10-08T17:03:25.995Z,7.88
2022-10-08T17:05:57.935Z,7.53
2022-10-08T17:08:32.832Z,7.32
2022-10-08T17:11:09.859Z,7.18
2022-10-08T17:13:47.310Z,7.63
2022-10-08T17:16:20.796Z,8.60
2022-10-08T17:18:54.318Z,8.40
2022-10-08T17:21:30.525Z,9.00
2022-10-08T17:24:03.042Z,8.27
2022-10-08T17:26:35.075Z,8.18
2022-10-08T17:29:09.578Z,8.57
2022-10-08T17:31:41.738Z,8.60
2022-10-08T17:34:13.456Z,8.30
2022-10-08T17:36:45.177Z,8.10
2022-10-08T17:39:16.859Z,8.77
2022-10-08T17:41:48.659Z,8.60
2022-10-08T17:44:20.425Z,7.70
2022-10-08T17:46:52.172Z,10.00
2022-10-08T17:49:24.109Z,8.88
2022-10-08T17:51:55.764Z,8.60
2022-10-08T17:54:27.543Z,8.32
2022-10-08T17:56:59.999Z,8.63
2022-10-08T17:59:31.900Z,8.35
2022-10-08T18:02:03.762Z,8.18
2022-10-08T18:04:35.562Z,7.43
2022-10-08T18:07:07.316Z,6.45
2022-10-08T18:09:39.028Z,6.18
2022-10-08T18:12:10.982Z,5.75
2022-10-08T18:14:45.610Z,6.38
2022-10-08T18:19:49.094Z,7.57
2022-10-08T18:22:22.918Z,5.45
2022-10-08T18:24:54.687Z,6.25
2022-10-08T18:27:26.328Z,5.68
2022-10-08T18:29:58.040Z,5.28
2022-10-08T18:32:29.746Z,5.15
2022-10-08T18:35:01.498Z,5.28
2022-10-08T18:37:33.181Z,4.53
2022-10-08T18:40:06.494Z,3.45
2022-10-08T18:42:38.291Z,3.80
2022-10-08T18:45:12.429Z,3.30
2022-10-08T18:47:44.308Z,3.15
2022-10-08T18:50:16.063Z,3.38
2022-10-08T18:52:47.995Z,3.28
2022-10-08T18:55:19.817Z,2.92
2022-10-08T18:57:53.268Z,2.80
2022-10-08T19:00:24.962Z,2.25
2022-10-08T19:05:31.517Z,1.75
2022-10-08T19:08:04.220Z,1.85
2022-10-08T19:10:36.052Z,1.92
2022-10-08T19:13:07.804Z,1.95
2022-10-08T19:15:39.764Z,1.90
2022-10-08T19:18:11.450Z,2.28
2022-10-08T19:20:43.096Z,2.00
2022-10-08T19:23:15.091Z,2.17
2022-10-08T19:25:47.081Z,1.88
2022-10-08T19:28:18.964Z,1.77
2022-10-08T19:30:50.769Z,2.42
2022-10-08T19:33:22.834Z,2.42
2022-10-08T19:36:00.975Z,2.10
2022-10-08T19:38:32.615Z,2.10
2022-10-08T19:41:08.890Z,2.80
2022-10-08T19:43:43.413Z,2.25
2022-10-08T19:48:51.375Z,2.42
2022-10-08T19:51:24.730Z,2.25
2022-10-08T19:53:57.658Z,2.67
2022-10-08T19:56:31.026Z,2.50
2022-10-08T19:59:03.191Z,2.25
2022-10-08T20:01:37.250Z,2.72
2022-10-08T20:04:11.061Z,2.55
2022-10-08T20:06:44.721Z,2.85
2022-10-08T20:09:16.806Z,2.40
2022-10-08T20:11:48.520Z,2.58
2022-10-08T20:14:20.907Z,2.47
2022-10-08T20:16:52.672Z,2.40
2022-10-08T20:19:27.067Z,2.35
2022-10-08T20:21:58.827Z,2.70
2022-10-08T20:24:36.531Z,2.58
2022-10-08T20:27:08.271Z,2.43
2022-10-08T20:29:39.950Z,2.20
2022-10-08T20:32:12.228Z,2.67
2022-10-08T20:34:46.820Z,2.28
2022-10-08T20:39:50.236Z,2.47
2022-10-08T20:42:23.488Z,2.85
2022-10-08T20:44:55.562Z,2.60
2022-10-08T20:47:27.311Z,2.53
2022-10-08T20:49:59.004Z,2.40
2022-10-08T20:52:30.800Z,2.30
2022-10-08T20:55:06.363Z,2.53
2022-10-08T20:57:38.130Z,2.75
2022-10-08T21:00:10.363Z,2.58
2022-10-08T21:02:42.047Z,2.75
2022-10-08T21:05:14.458Z,3.10
2022-10-08T21:07:46.284Z,2.60
2022-10-08T21:10:21.954Z,2.80
2022-10-08T21:12:56.257Z,2.60
2022-10-08T21:15:27.982Z,2.20
2022-10-08T21:17:59.725Z,2.33
2022-10-08T21:20:35.315Z,2.90
2022-10-08T21:23:09.985Z,2.40
2022-10-08T21:25:41.819Z,2.85
2022-10-08T21:28:13.702Z,2.83
2022-10-08T21:30:55.716Z,2.60
2022-10-08T21:33:27.514Z,3.35
2022-10-08T21:35:59.235Z,2.90
2022-10-08T21:38:31.156Z,2.78
2022-10-08T21:41:11.690Z,3.00
2022-10-08T21:43:51.919Z,2.75
2022-10-08T21:46:26.469Z,2.53
2022-10-08T21:49:00.729Z,2.58
2022-10-08T21:51:33.725Z,3.28
2022-10-08T21:54:06.779Z,3.03
2022-10-08T21:56:40.019Z,3.10
2022-10-08T21:59:14.608Z,2.38
2022-10-08T22:01:50.637Z,2.70
2022-10-08T22:04:24.601Z,2.50
2022-10-08T22:07:01.872Z,2.42
2022-10-08T22:09:34.870Z,2.60
2022-10-08T22:12:06.646Z,2.63
2022-10-08T22:14:38.435Z,3.00
2022-10-08T22:17:10.135Z,3.55
2022-10-08T22:19:41.839Z,3.10
2022-10-08T22:22:13.473Z,2.60
2022-10-08T22:24:45.145Z,3.35
2022-10-08T22:27:16.795Z,2.80
2022-10-08T22:29:48.499Z,3.00
2022-10-08T22:32:23.139Z,3.20
2022-10-08T22:37:26.380Z,3.00
2022-10-08T22:39:58.252Z,3.20
2022-10-08T22:42:31.037Z,3.38
2022-10-08T22:45:03.029Z,2.63
2022-10-08T22:47:37.701Z,3.00
2022-10-08T22:52:41.291Z,2.97
2022-10-08T22:55:14.908Z,3.38
2022-10-08T22:57:49.988Z,3.17
2022-10-08T23:00:21.665Z,3.63
2022-10-08T23:02:53.352Z,3.92
2022-10-08T23:05:25.030Z,3.63
2022-10-08T23:07:57.257Z,3.40
2022-10-08T23:10:28.948Z,3.33
2022-10-08T23:13:01.812Z,3.30
2022-10-08T23:15:33.510Z,3.03
2022-10-08T23:18:08.152Z,3.80
2022-10-08T23:23:11.375Z,3.78
2022-10-08T23:25:59.125Z,3.72
2022-10-08T23:28:33.070Z,3.45
2022-10-08T23:31:08.216Z,3.13
2022-10-08T23:33:43.812Z,3.25
2022-10-08T23:36:24.445Z,3.30
2022-10-08T23:38:58.911Z,3.42
2022-10-08T23:41:30.804Z,3.08
2022-10-08T23:44:05.538Z,3.60
2022-10-08T23:49:08.842Z,3.65
2022-10-08T23:51:40.660Z,3.30
2022-10-08T23:54:12.394Z,5.03
2022-10-08T23:56:44.144Z,3.63
2022-10-08T23:59:15.861Z,4.10
